Time;durP1;ratioP1;P1;durP2;ratioP2;P2;SDS_P1;SDS_P2;PMS_P1;PMS_P2;Temp;Humidity;BMP_temperature;BMP_pressure;BME280_temperature;BME280_humidity;BME280_pressure;Samples;Min_cycle;Max_cycle;Signal;HPM_P1;HPM_P2
2021/06/08 00:01:30;;;;;;;5.68;3.80;;;;;;;13.01;100.00;94253.59;5073924;28;20198;-79
2021/06/08 00:03:56;;;;;;;6.00;3.13;;;;;;;13.01;100.00;94258.84;5074077;28;20290;-79
2021/06/08 00:06:23;;;;;;;6.60;3.72;;;;;;;13.02;100.00;94260.44;5073927;28;20238;-81
2021/06/08 00:08:49;;;;;;;5.45;3.00;;;;;;;13.01;100.00;94261.47;5073816;28;20252;-80
2021/06/08 00:11:20;;;;;;;8.57;4.07;;;;;;;12.99;100.00;94266.09;5073948;28;20230;-79
2021/06/08 00:13:46;;;;;;;7.78;4.10;;;;;;;12.96;100.00;94262.88;5072933;28;20566;-79
2021/06/08 00:16:12;;;;;;;4.93;3.42;;;;;;;12.93;100.00;94268.50;5073707;28;20198;-79
2021/06/08 00:18:38;;;;;;;5.60;3.60;;;;;;;12.90;100.00;94262.88;5073843;28;20195;-79
2021/06/08 00:21:10;;;;;;;8.85;3.78;;;;;;;12.89;100.00;94253.38;5073822;28;20202;-80
2021/06/08 00:23:38;;;;;;;4.85;3.00;;;;;;;12.86;100.00;94249.38;5073618;28;20325;-80
2021/06/08 00:26:07;;;;;;;6.85;3.50;;;;;;;12.84;100.00;94254.00;5073706;28;20289;-80
2021/06/08 00:28:33;;;;;;;5.97;4.03;;;;;;;12.82;100.00;94255.22;5073674;28;20201;-79
2021/06/08 00:30:59;;;;;;;5.45;3.50;;;;;;;12.84;100.00;94256.63;5073408;28;20577;-79
2021/06/08 00:33:25;;;;;;;6.25;3.65;;;;;;;12.84;100.00;94243.53;5073602;28;20195;-79
2021/06/08 00:35:53;;;;;;;10.97;3.93;;;;;;;12.84;100.00;94245.31;5073497;28;20202;-80
2021/06/08 00:38:19;;;;;;;5.33;3.80;;;;;;;12.83;100.00;94247.16;5073344;28;20653;-80
2021/06/08 00:40:49;;;;;;;7.05;3.28;;;;;;;12.85;100.00;94239.88;5073371;28;20209;-80
2021/06/08 00:43:17;;;;;;;5.70;3.80;;;;;;;12.84;100.00;94243.53;5072496;28;20433;-79
2021/06/08 00:45:44;;;;;;;6.47;4.28;;;;;;;12.81;100.00;94249.19;5073440;28;20203;-80
2021/06/08 00:48:10;;;;;;;9.75;3.80;;;;;;;12.76;100.00;94251.59;5073356;28;20236;-80
2021/06/08 00:50:36;;;;;;;6.10;4.17;;;;;;;12.73;100.00;94249.38;5073202;28;20254;-79
2021/06/08 00:53:03;;;;;;;4.90;3.08;;;;;;;12.72;100.00;94250.38;5073241;28;20199;-79
2021/06/08 00:55:29;;;;;;;6.47;4.10;;;;;;;12.69;100.00;94256.00;5075596;28;20205;-79
2021/06/08 00:57:56;;;;;;;5.63;3.63;;;;;;;12.69;100.00;94248.97;5073112;28;20715;-80
2021/06/08 01:00:23;;;;;;;5.10;3.45;;;;;;;12.68;100.00;94249.97;5073276;28;20280;-81
2021/06/08 01:02:49;;;;;;;10.20;3.67;;;;;;;12.67;100.00;94248.34;5073053;28;20657;-79
2021/06/08 01:05:15;;;;;;;7.97;3.60;;;;;;;12.63;100.00;94251.59;5073107;28;20199;-79
2021/06/08 01:07:41;;;;;;;9.65;4.18;;;;;;;12.62;100.00;94255.22;5072948;28;20285;-79
2021/06/08 01:10:10;;;;;;;8.13;4.50;;;;;;;12.61;100.00;94250.97;5072783;28;20234;-79
2021/06/08 01:12:37;;;;;;;7.60;4.53;;;;;;;12.58;100.00;94246.94;5073133;28;20199;-79
2021/06/08 01:15:07;;;;;;;7.30;4.17;;;;;;;12.57;100.00;94253.19;5073168;28;20199;-79
2021/06/08 01:17:34;;;;;;;7.80;4.57;;;;;;;12.55;100.00;94250.75;5073175;28;20210;-79
2021/06/08 01:20:00;;;;;;;6.83;4.00;;;;;;;12.55;100.00;94250.75;5072853;28;20202;-80
2021/06/08 01:22:29;;;;;;;5.57;3.40;;;;;;;12.55;100.00;94247.34;5072878;28;20229;-78
2021/06/08 01:24:56;;;;;;;5.50;4.03;;;;;;;12.56;100.00;94241.91;5072383;28;20234;-79
2021/06/08 01:27:23;;;;;;;6.15;4.03;;;;;;;12.54;100.00;94238.69;5073149;28;20306;-79
2021/06/08 01:29:52;;;;;;;7.25;3.90;;;;;;;12.56;100.00;94228.03;5072661;28;20712;-79
2021/06/08 01:32:22;;;;;;;5.87;3.80;;;;;;;12.52;100.00;94235.47;5072701;28;20198;-80
2021/06/08 01:34:49;;;;;;;5.50;3.43;;;;;;;12.49;100.00;94233.25;5072825;28;20203;-80
2021/06/08 01:37:15;;;;;;;8.17;3.40;;;;;;;12.50;100.00;94231.44;5072590;28;20578;-80
2021/06/08 01:39:46;;;;;;;6.88;3.28;;;;;;;12.50;100.00;94231.44;5072875;28;20210;-80
2021/06/08 01:42:13;;;;;;;5.07;3.40;;;;;;;12.46;100.00;94231.03;5072610;28;20677;-80
2021/06/08 01:44:41;;;;;;;6.17;3.00;;;;;;;12.46;100.00;94225.78;5072573;28;20713;-79
2021/06/08 01:47:07;;;;;;;8.33;3.00;;;;;;;12.46;100.00;94230.22;5072663;28;20210;-79
2021/06/08 01:49:33;;;;;;;5.40;3.10;;;;;;;12.47;100.00;94237.88;5072462;28;20202;-79
2021/06/08 01:52:10;;;;;;;6.07;3.33;;;;;;;12.44;100.00;94235.66;5072443;28;20194;-81
2021/06/08 01:54:44;;;;;;;7.33;4.00;;;;;;;12.43;100.00;94246.34;5072671;28;20202;-81
2021/06/08 01:57:20;;;;;;;5.93;3.50;;;;;;;12.38;100.00;94239.09;5072627;28;20294;-81
2021/06/08 01:59:57;;;;;;;7.43;3.63;;;;;;;12.38;100.00;94244.31;5072676;28;20206;-80
2021/06/08 02:02:27;;;;;;;4.90;3.40;;;;;;;12.35;100.00;94240.28;5072429;28;20222;-81
2021/06/08 02:05:03;;;;;;;7.93;3.20;;;;;;;12.33;100.00;94241.50;5072539;28;20244;-80
2021/06/08 02:07:35;;;;;;;5.97;3.60;;;;;;;12.31;100.00;94243.50;5072661;28;20205;-80
2021/06/08 02:10:14;;;;;;;11.10;3.30;;;;;;;12.31;100.00;94243.50;5072357;28;20878;-81
2021/06/08 02:12:48;;;;;;;5.83;3.47;;;;;;;12.30;100.00;94236.66;5072569;28;20202;-79
2021/06/08 02:15:15;;;;;;;6.90;3.90;;;;;;;12.29;100.00;94233.25;5072592;28;20209;-80
2021/06/08 02:17:44;;;;;;;5.40;3.10;;;;;;;12.29;100.00;94240.25;5072185;28;20194;-80
2021/06/08 02:20:15;;;;;;;6.13;3.00;;;;;;;12.27;100.00;94237.03;5072121;28;20203;-80
2021/06/08 02:22:45;;;;;;;4.97;3.30;;;;;;;12.26;100.00;94235.41;5072286;28;20608;-79
2021/06/08 02:25:13;;;;;;;6.70;3.47;;;;;;;12.27;100.00;94237.84;5072114;28;20265;-80
2021/06/08 02:27:42;;;;;;;6.00;3.53;;;;;;;12.29;100.00;94240.25;5072435;28;20248;-78
2021/06/08 02:30:09;;;;;;;4.73;2.93;;;;;;;12.28;100.00;94243.91;5072225;28;20226;-79
2021/06/08 02:32:36;;;;;;;6.60;3.60;;;;;;;12.27;100.00;94245.69;5072213;28;20202;-79
2021/06/08 02:35:02;;;;;;;5.93;3.60;;;;;;;12.25;100.00;94236.44;5072264;28;20582;-79
2021/06/08 02:37:29;;;;;;;5.10;3.37;;;;;;;12.23;100.00;94236.63;5075391;28;20203;-78
2021/06/08 02:39:57;;;;;;;5.17;3.50;;;;;;;12.26;100.00;94240.66;5075738;28;20225;-80
2021/06/08 02:42:24;;;;;;;5.37;3.47;;;;;;;12.27;100.00;94243.06;5076004;28;20201;-79
2021/06/08 02:44:53;;;;;;;7.47;3.77;;;;;;;12.31;100.00;94248.75;5075806;28;20257;-79
2021/06/08 02:47:21;;;;;;;7.77;3.97;;;;;;;12.33;100.00;94241.50;5075658;28;20222;-79
2021/06/08 02:49:48;;;;;;;12.10;4.30;;;;;;;12.36;100.00;94243.72;5075570;28;20229;-79
2021/06/08 02:52:15;;;;;;;7.43;4.43;;;;;;;12.32;100.00;94243.31;5075555;28;20202;-78
2021/06/08 02:54:42;;;;;;;4.97;3.70;;;;;;;12.29;100.00;94248.13;5075468;28;20253;-81
2021/06/08 02:57:09;;;;;;;5.27;3.13;;;;;;;12.27;100.00;94258.00;5078008;28;20203;-80
2021/06/08 02:59:36;;;;;;;8.10;3.70;;;;;;;12.28;100.00;94249.16;5075506;28;20206;-80
2021/06/08 03:02:07;;;;;;;5.68;3.30;;;;;;;12.27;100.00;94258.78;5075380;28;20195;-80
2021/06/08 03:04:43;;;;;;;5.27;3.20;;;;;;;12.29;100.00;94256.81;5075297;28;20203;-79
2021/06/08 03:07:11;;;;;;;6.07;3.63;;;;;;;12.29;100.00;94269.06;5075405;28;20203;-79
2021/06/08 03:09:40;;;;;;;5.83;3.70;;;;;;;12.28;100.00;94264.84;5075135;28;20990;-80
2021/06/08 03:12:13;;;;;;;4.50;3.17;;;;;;;12.29;100.00;94267.28;5075177;28;20195;-79
2021/06/08 03:14:44;;;;;;;4.53;3.07;;;;;;;12.32;100.00;94273.91;5075175;28;20228;-81
2021/06/08 03:17:14;;;;;;;4.63;3.50;;;;;;;12.34;100.00;94277.13;5074916;28;20280;-81
2021/06/08 03:19:43;;;;;;;7.50;3.80;;;;;;;12.38;100.00;94276.53;5075154;28;20207;-79
2021/06/08 03:22:13;;;;;;;4.17;3.27;;;;;;;12.41;100.00;94285.81;5075187;28;20191;-81
2021/06/08 03:24:42;;;;;;;10.03;5.40;;;;;;;12.40;100.00;94278.97;5074712;28;20235;-80
2021/06/08 03:27:09;;;;;;;7.00;4.13;;;;;;;12.39;100.00;94272.13;5074837;28;20210;-80
2021/06/08 03:29:36;;;;;;;5.65;3.50;;;;;;;12.41;100.00;94275.34;5074608;28;20649;-80
2021/06/08 03:32:03;;;;;;;7.10;4.10;;;;;;;12.43;100.00;94277.78;5074647;28;20557;-81
2021/06/08 03:34:33;;;;;;;9.83;4.83;;;;;;;12.46;100.00;94283.41;5074869;28;20202;-79
2021/06/08 03:37:01;;;;;;;7.20;4.60;;;;;;;12.54;100.00;94280.59;5074628;28;20199;-80
2021/06/08 03:39:29;;;;;;;9.37;6.07;;;;;;;12.60;100.00;94278.97;5074725;28;20207;-80
2021/06/08 03:41:56;;;;;;;14.02;6.68;;;;;;;12.59;100.00;94283.44;5074526;28;20209;-80
2021/06/08 03:44:22;;;;;;;11.85;6.28;;;;;;;12.64;100.00;94289.88;5074315;28;20202;-80
2021/06/08 03:46:49;;;;;;;9.70;6.50;;;;;;;12.64;100.00;94288.06;5074552;28;20199;-80
2021/06/08 03:49:18;;;;;;;10.33;6.50;;;;;;;12.63;100.00;94285.66;5074611;28;20203;-80
2021/06/08 03:51:48;;;;;;;12.20;6.65;;;;;;;12.66;100.00;94282.63;5074479;28;20243;-80
2021/06/08 03:54:15;;;;;;;7.35;4.90;;;;;;;12.62;100.00;94286.66;5074326;28;20195;-80
2021/06/08 03:56:43;;;;;;;10.03;4.87;;;;;;;12.61;100.00;94282.41;5074088;28;20256;-80
2021/06/08 03:59:11;;;;;;;5.45;3.92;;;;;;;12.61;100.00;94290.25;5074342;28;20203;-80
2021/06/08 04:01:38;;;;;;;5.63;4.00;;;;;;;12.58;100.00;94292.28;5074326;28;20396;-81
2021/06/08 04:04:05;;;;;;;5.10;3.70;;;;;;;12.61;100.00;94296.31;5074249;28;20281;-80
2021/06/08 04:06:32;;;;;;;4.50;3.00;;;;;;;12.67;100.00;94305.19;5074149;28;20696;-81
2021/06/08 04:09:03;;;;;;;7.22;4.30;;;;;;;12.68;100.00;94307.59;5073998;28;20205;-80
2021/06/08 04:11:29;;;;;;;7.03;4.00;;;;;;;12.70;100.00;94302.16;5073782;28;20704;-81
2021/06/08 04:13:56;;;;;;;7.28;4.32;;;;;;;12.68;100.00;94307.59;5073955;28;20213;-79
2021/06/08 04:16:22;;;;;;;7.30;3.97;;;;;;;12.69;100.00;94303.16;5074060;28;20194;-79
2021/06/08 04:18:49;;;;;;;9.40;5.22;;;;;;;12.72;100.00;94306.22;5073856;28;20202;-80
2021/06/08 04:21:16;;;;;;;8.15;5.10;;;;;;;12.76;100.00;94304.00;5073146;28;20546;-78
2021/06/08 04:23:42;;;;;;;9.80;4.93;;;;;;;12.81;100.00;94306.81;5073527;28;20321;-79
2021/06/08 04:26:10;;;;;;;6.68;4.03;;;;;;;12.83;100.00;94296.94;5073509;28;20211;-80
2021/06/08 04:28:36;;;;;;;7.32;3.72;;;;;;;12.85;100.00;94296.75;5073673;28;20198;-79
2021/06/08 04:31:02;;;;;;;9.13;4.30;;;;;;;12.76;100.00;94298.75;5073566;28;20232;-79
2021/06/08 04:33:29;;;;;;;6.65;3.35;;;;;;;12.70;100.00;94292.50;5073504;28;20202;-80
2021/06/08 04:35:56;;;;;;;3.33;2.57;;;;;;;12.70;100.00;94289.06;5073607;28;20203;-79
2021/06/08 04:38:22;;;;;;;3.70;2.77;;;;;;;12.77;100.00;94297.72;5073374;28;20214;-80
2021/06/08 04:40:51;;;;;;;4.63;3.08;;;;;;;12.86;100.00;94304.41;5073770;28;20206;-80
2021/06/08 04:43:22;;;;;;;5.10;3.05;;;;;;;12.91;100.00;94307.22;5073387;28;20203;-80
2021/06/08 04:45:48;;;;;;;5.03;3.45;;;;;;;12.97;100.00;94300.34;5073336;28;20558;-80
2021/06/08 04:48:14;;;;;;;7.70;4.40;;;;;;;12.96;100.00;94299.56;5073567;28;20202;-80
2021/06/08 04:50:40;;;;;;;8.10;4.40;;;;;;;12.95;100.00;94307.63;5075232;28;20276;-80
2021/06/08 04:53:07;;;;;;;5.47;3.17;;;;;;;12.96;100.00;94307.41;5073110;28;20198;-79
2021/06/08 04:55:33;;;;;;;8.20;4.90;;;;;;;12.91;100.00;94301.19;5073124;28;20650;-80
2021/06/08 04:57:59;;;;;;;8.70;3.42;;;;;;;12.93;100.00;94305.19;5073009;28;20557;-81
2021/06/08 05:00:33;;;;;;;11.38;5.57;;;;;;;12.95;100.00;94299.75;5072867;28;20210;-81
2021/06/08 05:03:07;;;;;;;9.45;5.68;;;;;;;12.91;100.00;94296.75;5073200;28;20565;-79
2021/06/08 05:05:35;;;;;;;9.65;6.35;;;;;;;12.91;100.00;94299.34;5072199;28;20469;-79
2021/06/08 05:08:07;;;;;;;10.57;5.95;;;;;;;12.95;100.00;94299.75;5073170;28;20654;-79
2021/06/08 05:10:36;;;;;;;9.93;3.88;;;;;;;13.02;100.00;94302.38;5073161;28;20229;-80
2021/06/08 05:13:04;;;;;;;6.78;3.80;;;;;;;13.12;100.00;94287.03;5073000;28;20290;-80
2021/06/08 05:15:32;;;;;;;7.90;4.68;;;;;;;13.23;100.00;94299.53;5073017;28;20228;-82
2021/06/08 05:17:59;;;;;;;7.20;4.05;;;;;;;13.37;100.00;94299.56;5072894;28;20213;-80
2021/06/08 05:20:26;;;;;;;7.65;4.43;;;;;;;13.39;100.00;94302.78;5073049;28;20202;-79
2021/06/08 05:22:55;;;;;;;8.10;4.75;;;;;;;13.44;100.00;94295.09;5072976;28;20195;-79
2021/06/08 05:25:21;;;;;;;5.10;2.80;;;;;;;13.59;100.00;94297.47;5072667;28;20277;-79
2021/06/08 05:27:48;;;;;;;5.63;3.50;;;;;;;13.73;100.00;94301.69;5072853;28;20593;-79
2021/06/08 05:30:15;;;;;;;5.55;3.80;;;;;;;13.76;100.00;94303.09;5072750;28;20223;-79
2021/06/08 05:32:45;;;;;;;6.57;4.13;;;;;;;13.75;100.00;94304.09;5072555;28;20249;-80
2021/06/08 05:35:12;;;;;;;6.88;4.10;;;;;;;13.87;100.00;94295.41;5072924;28;20656;-80
2021/06/08 05:37:41;;;;;;;4.88;3.60;;;;;;;13.86;100.00;94292.97;5072874;28;20329;-80
2021/06/08 05:40:08;;;;;;;3.88;2.95;;;;;;;13.93;100.00;94298.19;5072804;28;20304;-79
2021/06/08 05:42:35;;;;;;;5.43;4.07;;;;;;;13.76;100.00;94297.84;5072690;28;20553;-82
2021/06/08 05:45:01;;;;;;;5.45;3.90;;;;;;;13.84;100.00;94300.25;5072712;28;20205;-80
2021/06/08 05:47:27;;;;;;;6.18;4.47;;;;;;;13.86;100.00;94296.41;5072565;28;20206;-80
2021/06/08 05:49:54;;;;;;;6.57;4.20;;;;;;;13.84;100.00;94302.88;5072718;28;20222;-81
2021/06/08 05:52:21;;;;;;;6.70;3.97;;;;;;;14.12;100.00;94299.94;5072681;28;20221;-81
2021/06/08 05:54:48;;;;;;;4.78;3.72;;;;;;;14.16;100.00;94308.22;5072584;28;20198;-81
2021/06/08 05:57:14;;;;;;;4.70;3.58;;;;;;;14.06;100.00;94306.81;5072444;28;20199;-80
2021/06/08 05:59:41;;;;;;;3.95;3.15;;;;;;;14.05;100.00;94312.28;5072414;28;20201;-80
2021/06/08 06:02:10;;;;;;;5.72;3.45;;;;;;;14.19;100.00;94305.16;5072730;28;20209;-80
2021/06/08 06:04:37;;;;;;;5.72;3.17;;;;;;;14.28;100.00;94311.78;5072683;28;20210;-79
2021/06/08 06:07:05;;;;;;;4.75;3.15;;;;;;;14.39;100.00;94305.84;5072493;28;20221;-80
2021/06/08 06:09:32;;;;;;;4.50;3.33;;;;;;;14.45;100.00;94309.44;5072450;28;20206;-80
2021/06/08 06:11:59;;;;;;;6.00;3.42;;;;;;;14.44;100.00;94306.03;5074826;28;20235;-79
2021/06/08 06:14:26;;;;;;;6.55;3.35;;;;;;;14.67;100.00;94312.59;5076119;28;20264;-80
2021/06/08 06:16:55;;;;;;;3.65;3.00;;;;;;;15.05;100.00;94295.91;5076276;28;20205;-80
2021/06/08 06:19:22;;;;;;;3.63;2.83;;;;;;;15.27;100.00;94300.78;5076181;28;20202;-79
2021/06/08 06:21:49;;;;;;;3.03;2.58;;;;;;;15.50;100.00;94297.53;5076107;28;20218;-81
2021/06/08 06:24:16;;;;;;;3.38;2.88;;;;;;;15.78;100.00;94304.97;5076055;28;20234;-82
2021/06/08 06:26:43;;;;;;;4.43;2.70;;;;;;;15.93;100.00;94306.44;5075924;28;20195;-82
2021/06/08 06:29:12;;;;;;;3.85;2.92;;;;;;;15.99;100.00;94308.22;5075812;28;20236;-82
2021/06/08 06:31:39;;;;;;;2.83;2.45;;;;;;;15.85;100.00;94307.53;5075633;28;20457;-82
2021/06/08 06:34:05;;;;;;;3.75;2.97;;;;;;;15.86;100.00;94317.06;5075887;28;20194;-79
2021/06/08 06:36:33;;;;;;;2.90;2.20;;;;;;;15.80;100.00;94318.72;5075756;28;20294;-80
2021/06/08 06:39:04;;;;;;;5.05;2.10;;;;;;;15.79;100.00;94311.88;5075895;28;20199;-80
2021/06/08 06:41:34;;;;;;;2.90;2.10;;;;;;;15.60;100.00;94310.22;5075709;28;20206;-80
2021/06/08 06:44:01;;;;;;;8.40;2.25;;;;;;;15.71;100.00;94317.38;5075956;28;20881;-81
2021/06/08 06:46:31;;;;;;;3.78;2.80;;;;;;;15.34;100.00;94330.50;5083334;28;20194;-80
2021/06/08 06:48:58;;;;;;;3.45;2.70;;;;;;;15.56;100.00;94315.09;5095794;28;20564;-80
2021/06/08 06:51:24;;;;;;;4.30;3.03;;;;;;;15.39;100.00;94327.19;5095648;28;20272;-80
2021/06/08 06:53:54;;;;;;;4.30;2.63;;;;;;;15.22;100.00;94324.31;5095849;28;20202;-81
2021/06/08 06:56:21;;;;;;;3.17;2.63;;;;;;;15.04;100.00;94338.22;5096110;28;20201;-82
2021/06/08 06:58:48;;;;;;;5.60;3.53;;;;;;;14.94;100.00;94336.09;5095798;28;20609;-81
2021/06/08 07:01:15;;;;;;;4.20;3.42;;;;;;;15.01;100.00;94339.47;5095469;28;20198;-80
2021/06/08 07:03:43;;;;;;;6.00;3.17;;;;;;;15.06;100.00;94337.00;5095450;28;20202;-82
2021/06/08 07:06:11;;;;;;;4.30;3.08;;;;;;;15.16;100.00;94326.78;5095466;28;20573;-81
2021/06/08 07:08:38;;;;;;;6.50;3.05;;;;;;;15.09;100.00;94328.69;5095363;28;20220;-81
2021/06/08 07:11:06;;;;;;;4.15;3.10;;;;;;;15.10;100.00;94337.38;5095385;28;20226;-81
2021/06/08 07:13:33;;;;;;;5.07;3.13;;;;;;;15.40;100.00;94334.88;5095516;28;20213;-81
2021/06/08 07:16:00;;;;;;;6.07;4.18;;;;;;;15.25;100.00;94337.84;5094767;28;20497;-81
2021/06/08 07:18:26;;;;;;;5.55;3.70;;;;;;;15.11;100.00;94337.16;5095235;28;20205;-80
2021/06/08 07:20:53;;;;;;;12.88;5.90;;;;;;;14.98;100.00;94340.69;5095303;28;20208;-81
2021/06/08 07:23:20;;;;;;;7.18;4.88;;;;;;;15.12;100.00;94341.41;5094464;28;20302;-80
2021/06/08 07:25:46;;;;;;;7.50;4.65;;;;;;;15.08;100.00;94339.41;5095142;28;20657;-81
2021/06/08 07:28:12;;;;;;;6.97;4.70;;;;;;;14.97;100.00;94340.88;5095093;28;20534;-81
2021/06/08 07:30:41;;;;;;;8.23;4.88;;;;;;;14.87;100.00;94346.66;5095228;28;20261;-81
2021/06/08 07:33:12;;;;;;;12.27;6.70;;;;;;;14.97;100.00;94344.34;5095116;28;20243;-82
2021/06/08 07:35:50;;;;;;;10.68;6.57;;;;;;;14.97;100.00;94346.16;5094848;28;20572;-81
2021/06/08 07:38:19;;;;;;;15.27;7.53;;;;;;;15.08;100.00;94334.94;5095067;28;20336;-80
2021/06/08 07:41:01;;;;;;;15.85;7.72;;;;;;;15.20;100.00;94336.88;5095002;28;20584;-81
2021/06/08 07:43:35;;;;;;;14.23;7.57;;;;;;;15.69;100.00;94343.13;5094677;28;20209;-82
2021/06/08 07:46:07;;;;;;;12.70;7.20;;;;;;;16.14;100.00;94344.69;5094620;28;20205;-82
2021/06/08 07:48:36;;;;;;;11.15;6.40;;;;;;;16.09;100.00;94350.63;5094848;28;20197;-82
2021/06/08 07:51:05;;;;;;;12.88;7.25;;;;;;;16.05;100.00;94341.56;5094883;28;20315;-82
2021/06/08 07:53:32;;;;;;;13.88;8.30;;;;;;;15.87;100.00;94348.44;5094652;28;20198;-83
2021/06/08 07:55:59;;;;;;;15.75;9.35;;;;;;;15.77;100.00;94352.59;5094903;28;20301;-82
2021/06/08 07:58:25;;;;;;;15.55;8.70;;;;;;;15.74;100.00;94345.91;5095056;28;20225;-84
2021/06/08 08:00:53;;;;;;;16.23;8.57;;;;;;;16.08;100.00;94351.66;5095068;28;20209;-81
2021/06/08 08:03:26;;;;;;;18.67;10.52;;;;;;;16.04;100.00;94345.22;5094559;28;20236;-83
2021/06/08 08:05:54;;;;;;;17.30;9.70;;;;;;;15.91;100.00;94344.34;5094504;28;20288;-81
2021/06/08 08:08:21;;;;;;;19.77;11.15;;;;;;;15.82;100.00;94348.28;5093903;28;20652;-80
2021/06/08 08:10:47;;;;;;;24.52;11.07;;;;;;;16.02;100.00;94342.00;5087152;28;20766;-80
2021/06/08 08:13:16;;;;;;;19.50;11.88;;;;;;;15.96;100.00;94348.94;5072943;28;20294;-81
2021/06/08 08:15:45;;;;;;;20.27;11.63;;;;;;;15.80;100.00;94339.78;5072875;28;20203;-79
2021/06/08 08:18:11;;;;;;;23.08;12.65;;;;;;;15.80;100.00;94342.41;5072878;28;20278;-81
2021/06/08 08:20:45;;;;;;;18.92;10.20;;;;;;;16.04;100.00;94339.97;5072876;28;20236;-79
2021/06/08 08:23:13;;;;;;;23.88;11.73;;;;;;;16.08;100.00;94338.47;5072600;28;20562;-80
2021/06/08 08:25:40;;;;;;;29.38;12.23;;;;;;;15.75;100.00;94346.72;5085116;28;20202;-79
2021/06/08 08:28:06;;;;;;;28.05;14.75;;;;;;;15.37;100.00;94345.88;5093023;28;20272;-82
2021/06/08 08:30:32;;;;;;;32.85;15.77;;;;;;;15.11;100.00;94354.75;5092644;28;20659;-81
2021/06/08 08:32:59;;;;;;;32.00;15.20;;;;;;;15.30;100.00;94355.63;5092448;28;20209;-81
2021/06/08 08:35:25;;;;;;;36.83;15.88;;;;;;;15.20;100.00;94352.66;5092275;28;20239;-80
2021/06/08 08:37:52;;;;;;;34.10;16.55;;;;;;;15.30;100.00;94355.63;5092736;28;20213;-80
2021/06/08 08:40:20;;;;;;;36.65;16.65;;;;;;;15.60;100.00;94347.84;5092057;28;20202;-76
2021/06/08 08:42:47;;;;;;;31.92;15.38;;;;;;;15.86;100.00;94349.44;5092795;28;20293;-79
2021/06/08 08:45:14;;;;;;;28.02;15.02;;;;;;;16.06;100.00;94356.34;5092711;28;20224;-80
2021/06/08 08:47:40;;;;;;;33.10;17.17;;;;;;;15.89;100.00;94351.66;5092461;28;20241;-80
2021/06/08 08:50:07;;;;;;;29.85;14.93;;;;;;;15.97;100.00;94352.38;5090897;28;20221;-80
2021/06/08 08:52:35;;;;;;;27.02;14.20;;;;;;;15.92;100.00;94347.78;5090074;28;20194;-80
2021/06/08 08:55:03;;;;;;;27.95;14.82;;;;;;;16.06;100.00;94349.22;5092636;28;20277;-78
2021/06/08 08:57:32;;;;;;;25.65;14.77;;;;;;;16.05;100.00;94352.09;5092430;28;20533;-80
2021/06/08 09:00:03;;;;;;;28.42;14.65;;;;;;;15.89;100.00;94350.84;5092441;28;20206;-79
2021/06/08 09:02:32;;;;;;;27.52;14.85;;;;;;;16.33;100.00;94351.56;5092198;28;20635;-79
2021/06/08 09:04:59;;;;;;;29.55;15.80;;;;;;;16.67;100.00;94356.41;5092215;28;20725;-80
2021/06/08 09:07:26;;;;;;;24.73;14.00;;;;;;;16.87;100.00;94350.88;5092137;28;20637;-81
2021/06/08 09:09:52;;;;;;;20.67;11.55;;;;;;;17.56;100.00;94351.22;5092157;28;20213;-81
2021/06/08 09:12:20;;;;;;;24.83;13.77;;;;;;;17.67;100.00;94346.97;5092095;28;20236;-81
2021/06/08 09:14:48;;;;;;;26.55;14.43;;;;;;;17.67;100.00;94353.06;5092432;28;20198;-80
2021/06/08 09:17:17;;;;;;;23.40;13.68;;;;;;;17.86;100.00;94345.03;5092168;28;20194;-79
2021/06/08 09:19:43;;;;;;;24.95;14.07;;;;;;;17.70;100.00;94347.34;5092155;28;20212;-79
2021/06/08 09:22:12;;;;;;;27.45;13.68;;;;;;;18.38;100.00;94352.97;5092132;28;20198;-79
2021/06/08 09:24:42;;;;;;;22.40;14.32;;;;;;;18.28;100.00;94350.13;5091847;28;20323;-79
2021/06/08 09:27:09;;;;;;;20.02;12.15;;;;;;;18.57;100.00;94355.44;5091892;28;20227;-79
2021/06/08 09:29:37;;;;;;;22.33;14.10;;;;;;;18.82;100.00;94352.50;5090910;28;20433;-80
2021/06/08 09:32:22;;;;;;;23.02;13.75;;;;;;;18.70;100.00;94349.88;5091891;28;20226;-82
2021/06/08 09:34:50;;;;;;;22.65;13.43;;;;;;;18.37;100.00;94345.28;5091837;28;20252;-82
2021/06/08 09:37:29;;;;;;;18.25;11.68;;;;;;;18.68;100.00;94349.31;5091809;28;20552;-83
2021/06/08 09:39:58;;;;;;;22.98;14.20;;;;;;;18.39;100.00;94354.59;5091825;28;20281;-81
2021/06/08 09:42:26;;;;;;;21.77;13.32;;;;;;;18.60;100.00;94349.69;5091782;28;20205;-80
2021/06/08 09:44:53;;;;;;;30.80;17.73;;;;;;;18.35;100.00;94357.94;5092705;28;20292;-80
2021/06/08 09:47:28;;;;;;;27.83;16.85;;;;;;;18.43;100.00;94357.56;5096135;28;20201;-81
2021/06/08 09:49:55;;;;;;;27.25;16.27;;;;;;;18.40;100.00;94358.84;5096052;28;20333;-81
2021/06/08 09:52:21;;;;;;;28.23;16.70;;;;;;;18.05;100.00;94354.44;5095714;28;20290;-82
2021/06/08 09:54:50;;;;;;;26.85;16.67;;;;;;;17.97;100.00;94352.16;5095811;28;20706;-82
2021/06/08 09:57:21;;;;;;;28.02;16.50;;;;;;;17.81;100.00;94360.75;5095504;28;20653;-81
2021/06/08 09:59:55;;;;;;;30.13;18.27;;;;;;;17.34;100.00;94364.19;5095933;28;20204;-83
2021/06/08 10:02:33;;;;;;;33.70;18.50;;;;;;;17.47;100.00;94363.16;5095823;28;20206;-82
2021/06/08 10:05:17;;;;;;;30.92;17.77;;;;;;;17.41;100.00;94362.22;5095932;28;20206;-81
2021/06/08 10:07:43;;;;;;;35.20;18.80;;;;;;;17.67;100.00;94355.72;5096194;28;20200;-78
2021/06/08 10:10:11;;;;;;;33.38;19.00;;;;;;;17.51;100.00;94364.31;5096113;28;20228;-80
2021/06/08 10:12:54;;;;;;;31.43;18.67;;;;;;;17.89;100.00;94357.81;5095330;28;21038;-80
2021/06/08 10:15:20;;;;;;;33.20;18.75;;;;;;;17.89;100.00;94357.81;5095786;28;20300;-81
2021/06/08 10:17:55;;;;;;;39.28;20.23;;;;;;;17.57;100.00;94358.13;5095468;28;20552;-80
2021/06/08 10:20:23;;;;;;;32.90;19.02;;;;;;;17.83;100.00;94364.75;5095573;28;20525;-78
2021/06/08 10:22:49;;;;;;;31.95;18.30;;;;;;;18.17;100.00;94361.53;5095559;28;20206;-81
2021/06/08 10:25:16;;;;;;;35.25;18.92;;;;;;;18.41;100.00;94372.88;5095042;28;20260;-82
2021/06/08 10:27:42;;;;;;;31.48;17.52;;;;;;;18.83;100.00;94364.69;5095164;28;20205;-81
2021/06/08 10:30:11;;;;;;;27.33;16.38;;;;;;;18.66;100.00;94369.91;5095552;28;20241;-81
2021/06/08 10:32:38;;;;;;;37.17;18.05;;;;;;;18.26;100.00;94360.16;5094729;28;20569;-83
2021/06/08 10:35:07;;;;;;;35.75;17.45;;;;;;;18.34;100.00;94367.72;5095242;28;20267;-83
2021/06/08 10:37:33;;;;;;;34.42;19.15;;;;;;;18.16;100.00;94365.22;5094987;28;20653;-80
2021/06/08 10:40:01;;;;;;;37.10;18.33;;;;;;;18.04;100.00;94360.75;5095100;28;20264;-81
2021/06/08 10:42:28;;;;;;;30.25;16.98;;;;;;;18.35;100.00;94364.00;5088921;28;20195;-82
2021/06/08 10:45:05;;;;;;;30.95;18.23;;;;;;;18.58;100.00;94359.69;5074652;28;20199;-80
2021/06/08 10:47:35;;;;;;;31.40;16.75;;;;;;;19.17;100.00;94368.22;5074721;28;20212;-78
2021/06/08 10:50:02;;;;;;;27.48;16.88;;;;;;;19.11;100.00;94361.22;5074593;28;20681;-80
2021/06/08 10:52:45;;;;;;;27.17;16.30;;;;;;;19.15;100.00;94357.06;5074457;28;20237;-79
2021/06/08 10:55:12;;;;;;;26.70;15.52;;;;;;;19.26;100.00;94351.94;5074550;28;20606;-79
2021/06/08 10:57:44;;;;;;;30.30;17.02;;;;;;;20.03;100.00;94348.56;5072260;28;20848;-79
2021/06/08 11:00:36;;;;;;;29.85;16.67;;;;;;;20.66;94.69;94349.09;5074796;28;20222;-79
2021/06/08 11:03:02;;;;;;;27.63;15.27;;;;;;;20.98;91.90;94345.69;5074542;28;20206;-80
2021/06/08 11:05:50;;;;;;;22.30;13.85;;;;;;;21.19;93.79;94336.06;5074565;28;20650;-81
2021/06/08 11:08:18;;;;;;;25.30;15.57;;;;;;;21.17;90.65;94337.38;5074553;28;20237;-78
2021/06/08 11:10:57;;;;;;;24.77;15.00;;;;;;;20.83;91.89;94332.28;5074592;28;20222;-78
2021/06/08 11:13:54;;;;;;;23.80;14.82;;;;;;;21.03;92.00;94336.97;5074426;28;20206;-80
2021/06/08 11:16:37;;;;;;;25.60;15.65;;;;;;;20.63;91.42;94336.34;5074239;28;20202;-80
2021/06/08 11:19:03;;;;;;;23.90;14.85;;;;;;;20.69;91.13;94337.19;5074325;28;20199;-81
2021/06/08 11:21:32;;;;;;;27.73;16.40;;;;;;;20.55;97.67;94334.09;5074072;28;20294;-80
2021/06/08 11:24:00;;;;;;;28.23;17.52;;;;;;;20.57;96.11;94326.69;5073868;28;20291;-80
2021/06/08 11:26:53;;;;;;;29.63;17.17;;;;;;;20.30;96.56;94335.41;5073884;28;20226;-79